Time;durP1;ratioP1;P1;durP2;ratioP2;P2;SDS_P1;SDS_P2;PMS_P1;PMS_P2;Temp;Humidity;BMP_temperature;BMP_pressure;BME280_temperature;BME280_humidity;BME280_pressure;Samples;Min_cycle;Max_cycle;Signal;HPM_P1;HPM_P2
2022/06/18 00:00:43;;;;;;;7.80;4.10;;;19.90;99.90;;;;;;5086661;28;20478;-79
2022/06/18 00:03:10;;;;;;;6.33;4.60;;;19.90;99.90;;;;;;5078148;28;20479;-79
2022/06/18 00:05:38;;;;;;;5.20;4.10;;;19.90;99.90;;;;;;5084826;28;20547;-79
2022/06/18 00:08:10;;;;;;;5.40;3.77;;;19.80;99.90;;;;;;5084130;28;20459;-79
2022/06/18 00:10:37;;;;;;;4.95;3.95;;;19.80;99.90;;;;;;5087582;28;20444;-77
2022/06/18 00:13:39;;;;;;;5.13;3.30;;;19.80;99.90;;;;;;5087039;28;20207;-77
2022/06/18 00:16:09;;;;;;;5.43;3.23;;;19.80;99.90;;;;;;5091123;28;20454;-78
2022/06/18 00:18:36;;;;;;;3.60;2.93;;;19.70;99.90;;;;;;5080800;28;20447;-78
2022/06/18 00:21:05;;;;;;;3.90;3.60;;;19.60;99.90;;;;;;5084549;28;20471;-77
2022/06/18 00:23:33;;;;;;;4.80;3.57;;;19.40;99.90;;;;;;5090885;28;20523;-77
2022/06/18 00:25:59;;;;;;;5.03;3.40;;;19.20;99.90;;;;;;5094227;28;20456;-77
2022/06/18 00:28:30;;;;;;;4.80;3.37;;;19.10;99.90;;;;;;5076994;28;20477;-78
2022/06/18 00:30:57;;;;;;;6.50;3.13;;;18.90;99.90;;;;;;5077668;28;20880;-78
2022/06/18 00:33:24;;;;;;;3.97;3.60;;;18.80;99.90;;;;;;5081615;28;20995;-77
2022/06/18 00:35:56;;;;;;;6.97;2.90;;;18.70;99.90;;;;;;5081575;28;20475;-78
2022/06/18 00:38:25;;;;;;;4.10;3.37;;;18.60;99.90;;;;;;5083158;28;21014;-77
2022/06/18 00:40:52;;;;;;;5.50;3.47;;;18.60;99.90;;;;;;5078125;28;20568;-77
2022/06/18 00:43:23;;;;;;;3.30;3.00;;;18.60;99.90;;;;;;5089290;28;20478;-78
2022/06/18 00:45:53;;;;;;;2.93;2.73;;;18.50;99.90;;;;;;5084520;28;20470;-78
2022/06/18 00:48:25;;;;;;;5.17;3.40;;;18.50;99.90;;;;;;5076689;28;20440;-77
2022/06/18 00:50:58;;;;;;;3.50;3.07;;;18.40;99.90;;;;;;5076176;28;20859;-77
2022/06/18 00:53:29;;;;;;;5.70;3.70;;;18.40;99.90;;;;;;5076128;28;20751;-77
2022/06/18 00:55:58;;;;;;;6.13;4.60;;;18.40;99.90;;;;;;5076285;28;20419;-77
2022/06/18 00:58:30;;;;;;;5.00;4.50;;;18.40;99.90;;;;;;5078237;28;20453;-77
2022/06/18 01:00:59;;;;;;;7.03;4.70;;;18.30;99.90;;;;;;5089433;28;20885;-78
2022/06/18 01:03:29;;;;;;;6.80;5.83;;;18.20;99.90;;;;;;5091410;28;20500;-77
2022/06/18 01:05:57;;;;;;;10.43;6.90;;;18.20;99.90;;;;;;5087204;28;20474;-77
2022/06/18 01:08:27;;;;;;;6.03;4.80;;;18.10;99.90;;;;;;5088117;28;20931;-77
2022/06/18 01:10:56;;;;;;;7.90;4.23;;;18.10;99.90;;;;;;5083084;28;20458;-77
2022/06/18 01:13:26;;;;;;;6.10;3.90;;;18.00;99.90;;;;;;5089535;28;20940;-77
2022/06/18 01:15:55;;;;;;;12.90;4.60;;;18.00;99.90;;;;;;5094723;28;20998;-77
2022/06/18 01:18:23;;;;;;;5.90;3.80;;;18.00;99.90;;;;;;5081376;28;20481;-78
2022/06/18 01:20:53;;;;;;;16.07;4.13;;;17.90;99.90;;;;;;5083527;28;20437;-78
2022/06/18 01:23:26;;;;;;;5.73;3.67;;;17.90;99.90;;;;;;5078971;28;20484;-78
2022/06/18 01:25:55;;;;;;;4.00;3.60;;;17.90;99.90;;;;;;5083988;28;20430;-77
2022/06/18 01:28:22;;;;;;;4.60;3.63;;;17.80;99.90;;;;;;5094658;28;20459;-77
2022/06/18 01:30:49;;;;;;;5.00;3.80;;;17.90;99.90;;;;;;5094838;28;20554;-77
2022/06/18 01:33:16;;;;;;;9.30;3.90;;;17.80;99.90;;;;;;5090633;28;20526;-77
2022/06/18 01:35:49;;;;;;;9.53;4.80;;;17.80;99.90;;;;;;5087353;28;20965;-77
2022/06/18 01:38:16;;;;;;;10.60;4.27;;;17.80;99.90;;;;;;5080863;28;20500;-77
2022/06/18 01:40:51;;;;;;;6.47;4.50;;;17.80;99.90;;;;;;5081769;28;20566;-78
2022/06/18 01:43:21;;;;;;;8.73;4.63;;;17.80;99.90;;;;;;5085128;28;20478;-78
2022/06/18 01:45:54;;;;;;;7.77;5.13;;;17.80;99.90;;;;;;5075391;28;20580;-78
2022/06/18 01:48:26;;;;;;;5.10;4.70;;;17.70;99.90;;;;;;5076058;28;20426;-77
2022/06/18 01:50:57;;;;;;;9.07;5.90;;;17.70;99.90;;;;;;5074854;28;20487;-77
2022/06/18 01:53:27;;;;;;;8.13;5.23;;;17.70;99.90;;;;;;5076066;28;20430;-77
2022/06/18 01:55:58;;;;;;;6.73;5.13;;;17.70;99.90;;;;;;5074639;28;20422;-78
2022/06/18 01:58:32;;;;;;;7.07;4.80;;;17.60;99.90;;;;;;5075856;28;20490;-77
2022/06/18 02:01:00;;;;;;;5.97;4.70;;;17.60;99.90;;;;;;5092594;28;20853;-77
2022/06/18 02:03:27;;;;;;;6.40;4.60;;;17.60;99.90;;;;;;5085956;28;20483;-77
2022/06/18 02:05:55;;;;;;;4.13;3.83;;;17.50;99.90;;;;;;5076726;28;20928;-77
2022/06/18 02:08:22;;;;;;;7.77;4.17;;;17.50;99.90;;;;;;5085794;28;20839;-78
2022/06/18 02:10:54;;;;;;;3.30;2.97;;;17.40;99.90;;;;;;5093665;28;20463;-78
2022/06/18 02:13:24;;;;;;;13.93;4.00;;;17.40;99.90;;;;;;5082421;28;20517;-77
2022/06/18 02:15:54;;;;;;;5.27;3.50;;;17.40;99.90;;;;;;5077194;28;20463;-79
2022/06/18 02:18:20;;;;;;;4.17;3.80;;;17.30;99.90;;;;;;5077290;28;20444;-77
2022/06/18 02:20:51;;;;;;;5.60;3.60;;;17.30;99.90;;;;;;5081118;28;20502;-79
2022/06/18 02:23:18;;;;;;;4.03;3.63;;;17.30;99.90;;;;;;5080601;28;20459;-78
2022/06/18 02:25:46;;;;;;;4.07;3.67;;;17.20;99.90;;;;;;5085696;28;20452;-77
2022/06/18 02:28:19;;;;;;;6.67;5.37;;;17.20;99.90;;;;;;5084551;28;20455;-77
2022/06/18 02:30:45;;;;;;;7.73;4.80;;;17.10;99.90;;;;;;5076440;28;20471;-77
2022/06/18 02:33:24;;;;;;;5.73;4.33;;;17.20;99.90;;;;;;5079854;28;20422;-78
2022/06/18 02:35:51;;;;;;;7.67;4.57;;;17.10;99.90;;;;;;5077280;28;20479;-76
2022/06/18 02:38:21;;;;;;;5.73;4.97;;;17.10;99.90;;;;;;5088952;28;20422;-77
2022/06/18 02:40:47;;;;;;;5.00;4.50;;;17.10;99.90;;;;;;5091347;28;20433;-77
2022/06/18 02:43:16;;;;;;;10.27;4.30;;;17.10;99.90;;;;;;5087568;28;20456;-77
2022/06/18 02:45:45;;;;;;;12.80;6.70;;;17.00;99.90;;;;;;5074218;28;20468;-77
2022/06/18 02:48:12;;;;;;;10.23;5.77;;;16.90;99.90;;;;;;5074502;28;20426;-77
2022/06/18 02:50:42;;;;;;;16.50;6.10;;;16.90;99.90;;;;;;5076716;28;20968;-77
2022/06/18 02:53:12;;;;;;;11.47;5.13;;;16.80;99.90;;;;;;5094642;28;20439;-77
2022/06/18 02:55:41;;;;;;;8.93;4.67;;;16.80;99.90;;;;;;5084225;28;20914;-76
2022/06/18 02:58:12;;;;;;;6.33;4.00;;;16.70;99.90;;;;;;5087648;28;20501;-77
2022/06/18 03:00:41;;;;;;;6.47;4.07;;;16.70;99.90;;;;;;5082182;28;20515;-77
2022/06/18 03:03:11;;;;;;;4.40;4.00;;;16.60;99.90;;;;;;5086062;28;21015;-77
2022/06/18 03:05:39;;;;;;;3.97;3.47;;;16.60;99.90;;;;;;5074965;28;20588;-77
2022/06/18 03:08:07;;;;;;;7.90;4.23;;;16.60;99.90;;;;;;5092440;28;20939;-79
2022/06/18 03:13:18;;;;;;;5.90;4.70;;;16.50;99.90;;;;;;5089600;28;21132;-78
2022/06/18 03:15:45;;;;;;;6.43;4.20;;;16.50;99.90;;;;;;5082776;28;20447;-77
2022/06/18 03:18:12;;;;;;;7.40;4.17;;;16.50;99.90;;;;;;5089603;28;20862;-77
2022/06/18 03:20:57;;;;;;;7.07;4.63;;;16.40;99.90;;;;;;5091794;28;20490;-77
2022/06/18 03:23:24;;;;;;;7.73;5.60;;;16.40;99.90;;;;;;5091909;28;20835;-77
2022/06/18 03:25:52;;;;;;;13.73;5.40;;;16.40;99.90;;;;;;5087663;28;20483;-77
2022/06/18 03:28:20;;;;;;;8.90;4.87;;;16.30;99.90;;;;;;5091089;28;20451;-76
2022/06/18 03:30:46;;;;;;;11.03;4.00;;;16.30;99.90;;;;;;5089001;28;20499;-77
2022/06/18 03:33:13;;;;;;;7.43;4.37;;;16.30;99.90;;;;;;5079970;28;20480;-77
2022/06/18 03:35:44;;;;;;;12.70;5.10;;;16.20;99.90;;;;;;5093089;28;20497;-77
2022/06/18 03:38:11;;;;;;;6.40;4.70;;;16.20;99.90;;;;;;5089174;28;20422;-77
2022/06/18 03:40:38;;;;;;;5.90;5.00;;;16.20;99.90;;;;;;5074313;28;20866;-77
2022/06/18 03:43:04;;;;;;;5.30;4.63;;;16.20;99.90;;;;;;5080257;28;20430;-78
2022/06/18 03:45:35;;;;;;;4.73;3.90;;;16.20;99.90;;;;;;5074409;28;20500;-77
2022/06/18 03:48:02;;;;;;;4.73;3.83;;;16.20;99.90;;;;;;5078433;28;20426;-77
2022/06/18 03:50:29;;;;;;;4.77;3.83;;;16.20;99.90;;;;;;5082582;28;20454;-78
2022/06/18 03:52:57;;;;;;;4.90;4.40;;;16.30;99.90;;;;;;5087567;28;20843;-77
2022/06/18 03:55:24;;;;;;;8.60;4.00;;;16.30;99.90;;;;;;5091867;28;20842;-78
2022/06/18 03:57:51;;;;;;;4.23;3.53;;;16.30;99.90;;;;;;5075282;28;20550;-77
2022/06/18 04:00:21;;;;;;;4.23;3.80;;;16.40;99.90;;;;;;5074501;28;20525;-80
2022/06/18 04:02:48;;;;;;;11.73;3.27;;;16.40;99.90;;;;;;5076489;28;20480;-78
2022/06/18 04:05:15;;;;;;;7.63;4.50;;;16.50;99.90;;;;;;5089734;28;20972;-77
2022/06/18 04:07:42;;;;;;;5.40;3.70;;;16.50;99.90;;;;;;5092433;28;20515;-77
2022/06/18 04:10:16;;;;;;;6.90;3.60;;;16.50;99.90;;;;;;5083691;28;20437;-77
2022/06/18 04:12:43;;;;;;;3.73;3.40;;;16.60;99.90;;;;;;5085825;28;20826;-77
2022/06/18 04:15:11;;;;;;;5.70;3.20;;;16.60;99.90;;;;;;5078931;28;20418;-78
2022/06/18 04:17:38;;;;;;;9.30;3.67;;;16.70;99.90;;;;;;5093032;28;20444;-77
2022/06/18 04:20:06;;;;;;;4.53;3.13;;;16.80;99.90;;;;;;5090394;28;20437;-78
2022/06/18 04:22:32;;;;;;;4.20;3.80;;;16.90;99.90;;;;;;5088788;28;20434;-78
2022/06/18 04:24:59;;;;;;;5.23;3.90;;;16.90;99.90;;;;;;5077914;28;20450;-78
2022/06/18 04:27:27;;;;;;;4.10;3.70;;;17.00;99.90;;;;;;5088879;28;20458;-78
2022/06/18 04:29:54;;;;;;;7.13;4.20;;;17.00;99.90;;;;;;5083130;28;20892;-78
2022/06/18 04:32:20;;;;;;;4.90;3.27;;;17.10;99.90;;;;;;5092553;28;20421;-78
2022/06/18 04:34:47;;;;;;;4.63;4.03;;;17.10;99.90;;;;;;5079329;28;20418;-78
2022/06/18 04:37:13;;;;;;;5.97;4.00;;;17.10;99.90;;;;;;5091695;28;20519;-78
2022/06/18 04:39:40;;;;;;;6.43;4.20;;;17.20;99.90;;;;;;5090078;28;20478;-78
2022/06/18 04:42:07;;;;;;;4.53;3.93;;;17.20;99.90;;;;;;5092566;28;20429;-77
2022/06/18 04:44:35;;;;;;;8.37;4.20;;;17.20;99.90;;;;;;5089648;28;20482;-78
2022/06/18 04:47:02;;;;;;;10.40;4.30;;;17.20;99.90;;;;;;5081491;28;20947;-78
2022/06/18 04:49:28;;;;;;;6.63;3.93;;;17.30;99.90;;;;;;5084407;28;20488;-77
2022/06/18 04:51:55;;;;;;;10.03;4.47;;;17.30;99.90;;;;;;5083391;28;20828;-78
2022/06/18 04:54:21;;;;;;;5.37;4.87;;;17.40;99.90;;;;;;5075469;28;20430;-78
2022/06/18 04:56:48;;;;;;;4.80;4.40;;;17.50;99.90;;;;;;5083649;28;20438;-78
2022/06/18 04:59:15;;;;;;;4.93;4.47;;;17.60;99.90;;;;;;5094495;28;20938;-78
2022/06/18 05:01:43;;;;;;;9.80;4.30;;;17.70;99.90;;;;;;5088148;28;20443;-78
2022/06/18 05:04:10;;;;;;;5.40;4.20;;;17.70;99.90;;;;;;5091655;28;20514;-78
2022/06/18 05:06:37;;;;;;;8.00;5.03;;;17.80;99.90;;;;;;5074999;28;20932;-79
2022/06/18 05:09:03;;;;;;;4.27;3.87;;;17.90;99.90;;;;;;5082906;28;20434;-78
2022/06/18 05:11:30;;;;;;;7.50;4.60;;;18.00;99.90;;;;;;5089537;28;20453;-79
2022/06/18 05:13:57;;;;;;;8.20;5.03;;;18.00;99.90;;;;;;5085578;28;20520;-78
2022/06/18 05:16:24;;;;;;;7.10;4.13;;;18.10;99.90;;;;;;5090077;28;20417;-78
2022/06/18 05:18:52;;;;;;;6.00;4.57;;;18.20;99.90;;;;;;5093709;28;20425;-77
2022/06/18 05:21:18;;;;;;;4.90;4.50;;;18.20;99.90;;;;;;5079111;28;20950;-78
2022/06/18 05:23:45;;;;;;;4.90;4.40;;;18.20;99.90;;;;;;5081742;28;20448;-77
2022/06/18 05:26:15;;;;;;;5.90;4.60;;;18.30;99.90;;;;;;5082698;28;20543;-78
2022/06/18 05:28:42;;;;;;;5.97;4.77;;;18.30;99.90;;;;;;5081214;28;20447;-78
2022/06/18 05:31:09;;;;;;;6.80;4.30;;;18.30;99.90;;;;;;5077256;28;20445;-78
2022/06/18 05:33:35;;;;;;;5.70;4.87;;;18.40;99.90;;;;;;5093201;28;20456;-79
2022/06/18 05:36:05;;;;;;;7.53;4.00;;;18.40;99.90;;;;;;5090828;28;20422;-79
2022/06/18 05:38:31;;;;;;;6.20;4.20;;;18.40;99.90;;;;;;5083312;28;20455;-80
2022/06/18 05:40:58;;;;;;;5.23;4.73;;;18.50;99.90;;;;;;5075187;28;20477;-79
2022/06/18 05:43:25;;;;;;;5.83;4.60;;;18.60;99.90;;;;;;5087363;28;20802;-80
2022/06/18 05:45:53;;;;;;;8.30;5.13;;;18.70;99.90;;;;;;5084223;28;20816;-81
2022/06/18 05:48:20;;;;;;;7.00;4.10;;;18.80;99.90;;;;;;5092504;28;20436;-81
2022/06/18 05:50:47;;;;;;;12.40;4.97;;;18.90;99.90;;;;;;5086342;28;20479;-79
2022/06/18 05:53:15;;;;;;;7.13;4.70;;;19.10;99.90;;;;;;5094426;28;20539;-79
2022/06/18 05:55:41;;;;;;;3.70;3.40;;;19.10;99.90;;;;;;5085499;28;20444;-79
2022/06/18 05:58:10;;;;;;;5.97;3.43;;;19.30;99.90;;;;;;5082298;28;21180;-79
2022/06/18 06:00:37;;;;;;;5.63;4.03;;;19.40;99.90;;;;;;5080900;28;20445;-80
2022/06/18 06:03:04;;;;;;;6.00;4.50;;;19.60;99.90;;;;;;5076779;28;20448;-80
2022/06/18 06:05:31;;;;;;;7.63;4.70;;;19.70;99.90;;;;;;5086626;28;20482;-77
2022/06/18 06:07:57;;;;;;;4.90;4.50;;;19.80;99.90;;;;;;5080302;28;20896;-80
2022/06/18 06:13:13;;;;;;;4.03;3.70;;;19.80;99.90;;;;;;5071429;28;20209;-77
2022/06/18 06:15:41;;;;;;;5.20;4.50;;;20.00;99.90;;;;;;5071001;28;20489;-78
2022/06/18 06:18:10;;;;;;;4.53;4.10;;;20.10;99.90;;;;;;5070906;28;20459;-76
2022/06/18 06:20:39;;;;;;;5.90;4.33;;;20.30;99.90;;;;;;5082359;28;20445;-79
2022/06/18 06:23:06;;;;;;;4.60;3.90;;;20.40;99.90;;;;;;5084517;28;20462;-79
2022/06/18 06:25:35;;;;;;;5.00;4.60;;;20.60;99.90;;;;;;5087792;28;20487;-78
2022/06/18 06:28:02;;;;;;;4.87;4.47;;;20.60;99.90;;;;;;5082122;28;20488;-76
2022/06/18 06:30:29;;;;;;;5.80;4.50;;;20.70;99.90;;;;;;5075432;28;20482;-77
2022/06/18 06:32:56;;;;;;;6.70;4.60;;;20.80;99.90;;;;;;5076168;28;20459;-75
2022/06/18 06:35:23;;;;;;;4.90;4.00;;;20.90;99.90;;;;;;5075436;28;20456;-76
2022/06/18 06:37:49;;;;;;;7.70;5.57;;;21.10;99.90;;;;;;5081946;28;20496;-76
2022/06/18 06:40:17;;;;;;;4.67;4.23;;;21.20;99.90;;;;;;5070705;28;20472;-76
2022/06/18 06:42:47;;;;;;;4.73;4.20;;;21.30;99.90;;;;;;5073976;28;20827;-76
2022/06/18 06:45:17;;;;;;;8.87;4.77;;;21.60;99.90;;;;;;5076073;28;20467;-76
2022/06/18 06:47:44;;;;;;;6.80;5.27;;;21.70;99.90;;;;;;5076681;28;20459;-76
2022/06/18 06:50:12;;;;;;;9.17;5.00;;;21.80;99.90;;;;;;5074135;28;20472;-76
2022/06/18 06:52:39;;;;;;;7.57;4.70;;;21.90;99.90;;;;;;5081453;28;20463;-76
2022/06/18 06:57:57;;;;;;;10.43;5.57;;;22.10;99.90;;;;;;5079068;28;20450;-76
2022/06/18 07:00:24;;;;;;;5.43;4.93;;;22.30;99.90;;;;;;5077894;28;20536;-76
2022/06/18 07:02:51;;;;;;;8.33;5.63;;;22.30;99.90;;;;;;5082481;28;20452;-77
2022/06/18 07:05:17;;;;;;;5.40;4.83;;;22.30;99.90;;;;;;5074435;28;20471;-75
2022/06/18 07:07:44;;;;;;;5.37;4.87;;;22.40;99.90;;;;;;5079256;28;20454;-76
2022/06/18 07:10:11;;;;;;;6.30;4.60;;;22.60;99.90;;;;;;5085785;28;20466;-77
2022/06/18 07:12:39;;;;;;;11.37;5.60;;;22.80;99.90;;;;;;5087491;28;20470;-75
2022/06/18 07:15:08;;;;;;;7.53;5.70;;;23.10;99.90;;;;;;5080854;28;20443;-76
2022/06/18 07:17:35;;;;;;;6.90;5.47;;;23.30;99.90;;;;;;5073364;28;20497;-76
2022/06/18 07:20:03;;;;;;;10.37;5.80;;;23.40;99.90;;;;;;5072563;28;20520;-77
2022/06/18 07:22:31;;;;;;;6.10;4.90;;;23.60;99.90;;;;;;5080230;28;20456;-77
2022/06/18 07:24:58;;;;;;;7.53;4.73;;;23.70;99.90;;;;;;5081944;28;20451;-76
2022/06/18 07:27:24;;;;;;;6.53;4.53;;;23.80;99.90;;;;;;5070865;28;20463;-78
2022/06/18 07:29:52;;;;;;;6.03;4.33;;;23.80;99.90;;;;;;5070685;28;20939;-76
2022/06/18 07:32:21;;;;;;;7.33;4.80;;;24.10;99.90;;;;;;5079780;28;20832;-76
2022/06/18 07:34:47;;;;;;;5.80;5.07;;;24.10;99.90;;;;;;5075450;28;20568;-77
2022/06/18 07:37:14;;;;;;;11.80;4.40;;;24.40;99.90;;;;;;5078491;28;20951;-77
2022/06/18 07:39:41;;;;;;;6.00;4.70;;;24.50;99.90;;;;;;5083664;28;20451;-78
2022/06/18 07:42:08;;;;;;;8.03;4.23;;;24.60;99.90;;;;;;5080425;28;20546;-77
2022/06/18 07:44:35;;;;;;;5.27;4.30;;;24.80;99.90;;;;;;5085591;28;20467;-77
2022/06/18 07:47:02;;;;;;;6.83;4.50;;;24.90;99.90;;;;;;5082953;28;20486;-77
2022/06/18 07:49:30;;;;;;;5.60;4.00;;;24.90;99.90;;;;;;5080079;28;20966;-78
2022/06/18 07:51:57;;;;;;;6.90;4.10;;;25.10;99.90;;;;;;5079438;28;20480;-77
2022/06/18 07:54:25;;;;;;;14.50;4.60;;;25.10;99.90;;;;;;5085282;28;20454;-78
2022/06/18 07:56:51;;;;;;;6.83;4.73;;;25.40;99.90;;;;;;5087052;28;20447;-76
2022/06/18 07:59:18;;;;;;;4.97;4.47;;;25.50;99.90;;;;;;5087751;28;20484;-76
2022/06/18 08:01:45;;;;;;;8.43;4.43;;;25.70;99.90;;;;;;5085546;28;20908;-77
2022/06/18 08:04:12;;;;;;;6.37;3.90;;;25.70;99.90;;;;;;5086943;28;20862;-80
2022/06/18 08:06:40;;;;;;;4.57;4.17;;;25.90;99.90;;;;;;5077497;28;20549;-80
2022/06/18 08:09:06;;;;;;;4.50;4.07;;;26.00;99.90;;;;;;5079311;28;20447;-82
2022/06/18 08:11:33;;;;;;;9.57;3.93;;;26.00;99.90;;;;;;5079732;28;20472;-76
2022/06/18 08:13:59;;;;;;;15.43;3.83;;;26.10;99.90;;;;;;5080189;28;20455;-73
2022/06/18 08:16:26;;;;;;;6.57;3.77;;;26.10;99.90;;;;;;5085087;28;20517;-73
2022/06/18 08:18:53;;;;;;;7.50;3.77;;;26.20;99.90;;;;;;5085658;28;20876;-72
2022/06/18 08:21:23;;;;;;;5.43;3.70;;;26.40;99.90;;;;;;5080441;28;20479;-72
2022/06/18 08:23:53;;;;;;;7.33;3.10;;;26.60;99.90;;;;;;5073472;28;20451;-74
2022/06/18 08:26:20;;;;;;;10.60;3.30;;;26.80;99.90;;;;;;5072547;28;20566;-73
2022/06/18 08:28:47;;;;;;;11.87;3.73;;;27.10;99.90;;;;;;5071592;28;20993;-74
2022/06/18 08:31:14;;;;;;;9.33;2.93;;;27.20;99.90;;;;;;5082051;28;20474;-73
2022/06/18 08:33:41;;;;;;;4.70;3.20;;;27.30;99.90;;;;;;5083193;28;20496;-72
2022/06/18 08:36:12;;;;;;;5.17;3.23;;;27.40;99.90;;;;;;5082573;28;20458;-72
2022/06/18 08:38:40;;;;;;;6.10;3.60;;;27.50;99.90;;;;;;5086807;28;20524;-72
2022/06/18 08:41:20;;;;;;;8.43;3.57;;;27.60;99.90;;;;;;5083989;28;20474;-74
2022/06/18 08:44:01;;;;;;;4.20;3.13;;;27.80;99.90;;;;;;5074013;28;20477;-73
2022/06/18 08:46:39;;;;;;;4.63;3.13;;;28.00;99.90;;;;;;5073116;28;20483;-73
2022/06/18 08:49:26;;;;;;;3.50;2.90;;;28.10;99.90;;;;;;5073299;28;20939;-73
2022/06/18 08:52:04;;;;;;;4.73;2.40;;;28.20;99.90;;;;;;5081318;28;21002;-71
2022/06/18 08:54:40;;;;;;;3.17;2.87;;;28.50;99.90;;;;;;5083443;28;20523;-73
2022/06/18 08:57:25;;;;;;;4.43;2.50;;;28.70;99.90;;;;;;5076765;28;20455;-73
2022/06/18 09:00:02;;;;;;;5.80;2.27;;;28.70;99.90;;;;;;5077923;28;20986;-72
2022/06/18 09:02:35;;;;;;;3.90;2.80;;;28.70;99.90;;;;;;5087835;28;20446;-75
2022/06/18 09:05:11;;;;;;;6.30;2.20;;;28.80;99.90;;;;;;5079789;28;20869;-72
2022/06/18 09:08:03;;;;;;;8.17;2.60;;;28.90;99.90;;;;;;5075057;28;20486;-72
2022/06/18 09:10:42;;;;;;;3.37;2.30;;;29.00;99.90;;;;;;5072496;28;20521;-73
2022/06/18 09:13:14;;;;;;;2.53;2.27;;;29.00;99.90;;;;;;5080305;28;20470;-73
2022/06/18 09:15:44;;;;;;;3.10;2.80;;;29.10;99.90;;;;;;5081852;28;20492;-74
2022/06/18 09:18:16;;;;;;;10.00;2.50;;;29.20;99.90;;;;;;5075140;28;20448;-72
2022/06/18 09:20:48;;;;;;;4.13;2.40;;;29.50;99.90;;;;;;5071796;28;20439;-73
2022/06/18 09:23:19;;;;;;;3.90;2.90;;;29.70;99.90;;;;;;5079713;28;20197;-73
2022/06/18 09:25:50;;;;;;;2.93;2.50;;;29.90;99.90;;;;;;5085403;28;20482;-75
2022/06/18 09:28:24;;;;;;;7.10;2.60;;;30.00;99.90;;;;;;5078383;28;20879;-75
2022/06/18 09:30:54;;;;;;;5.20;2.87;;;30.00;99.90;;;;;;5081806;28;20985;-74
2022/06/18 09:33:26;;;;;;;4.60;3.20;;;29.90;99.90;;;;;;5076022;28;20451;-73
2022/06/18 09:35:56;;;;;;;4.23;2.60;;;29.90;99.90;;;;;;5074231;28;20953;-73
2022/06/18 09:38:27;;;;;;;6.60;2.70;;;29.90;99.90;;;;;;5076588;28;20973;-73
2022/06/18 09:40:57;;;;;;;3.23;2.63;;;30.00;99.90;;;;;;5076798;28;20467;-74
2022/06/18 09:43:36;;;;;;;7.20;2.83;;;30.20;99.90;;;;;;5081302;28;20537;-72
2022/06/18 09:46:09;;;;;;;3.40;2.93;;;30.10;99.90;;;;;;5075287;28;20544;-74
2022/06/18 09:48:37;;;;;;;5.77;2.77;;;30.10;99.90;;;;;;5081265;28;21030;-73
2022/06/18 09:51:11;;;;;;;2.67;2.47;;;30.10;99.90;;;;;;5085849;28;20488;-74
2022/06/18 09:53:42;;;;;;;3.20;2.90;;;30.10;99.90;;;;;;5075646;28;20459;-74
2022/06/18 09:56:12;;;;;;;5.77;3.30;;;30.20;99.90;;;;;;5092552;28;20500;-72
2022/06/18 09:58:43;;;;;;;4.07;3.00;;;30.30;99.90;;;;;;5091819;28;20455;-74
2022/06/18 10:01:16;;;;;;;4.73;3.13;;;30.30;99.90;;;;;;5083816;28;20468;-76
2022/06/18 10:06:55;;;;;;;3.90;2.90;;;30.70;99.90;;;;;;5057255;28;20464;-76
2022/06/18 10:09:29;;;;;;;5.40;2.70;;;31.00;99.90;;;;;;5087471;28;20543;-76
2022/06/18 10:11:57;;;;;;;8.47;2.80;;;31.10;99.90;;;;;;5081366;28;20520;-76
2022/06/18 10:14:25;;;;;;;4.90;2.87;;;31.30;99.90;;;;;;5079332;28;20455;-74
2022/06/18 10:17:06;;;;;;;5.90;2.90;;;31.60;99.90;;;;;;5083966;28;20962;-72
2022/06/18 10:19:43;;;;;;;6.73;3.10;;;31.40;99.90;;;;;;5074567;28;20451;-73
2022/06/18 10:22:22;;;;;;;3.57;2.70;;;31.30;99.90;;;;;;5079604;28;20485;-74
2022/06/18 10:24:55;;;;;;;7.40;3.23;;;31.40;99.90;;;;;;5077239;28;20534;-74
2022/06/18 10:27:31;;;;;;;10.27;2.87;;;31.40;99.90;;;;;;5080225;28;20480;-74
2022/06/18 10:30:07;;;;;;;4.97;3.30;;;31.60;99.90;;;;;;5082352;28;20527;-74
2022/06/18 10:32:45;;;;;;;3.60;3.23;;;31.80;99.90;;;;;;5079748;28;20451;-74
2022/06/18 10:35:28;;;;;;;5.50;2.80;;;31.80;99.90;;;;;;5069937;28;20443;-73
2022/06/18 10:38:07;;;;;;;9.00;2.90;;;31.80;99.90;;;;;;5075928;28;20489;-74
2022/06/18 10:40:44;;;;;;;10.93;2.80;;;31.80;99.90;;;;;;5084045;28;20467;-73
2022/06/18 10:43:23;;;;;;;4.50;2.57;;;31.80;99.80;;;;;;5075111;28;20460;-74
2022/06/18 10:45:58;;;;;;;4.27;2.87;;;31.90;99.80;;;;;;5075228;28;20461;-73
2022/06/18 10:48:27;;;;;;;9.50;3.30;;;32.10;99.90;;;;;;5087035;28;20458;-73
2022/06/18 10:50:56;;;;;;;3.60;3.30;;;32.20;99.10;;;;;;5083828;28;20524;-74
2022/06/18 10:53:24;;;;;;;7.97;2.80;;;32.30;98.60;;;;;;5082208;28;20456;-74
2022/06/18 10:55:59;;;;;;;10.80;3.50;;;32.40;98.60;;;;;;5081898;28;20508;-73
2022/06/18 10:58:27;;;;;;;5.20;3.20;;;32.40;99.00;;;;;;5082623;28;20504;-74
2022/06/18 11:00:58;;;;;;;6.80;3.40;;;32.40;98.80;;;;;;5086076;28;20519;-74
2022/06/18 11:03:28;;;;;;;6.17;3.20;;;32.60;98.40;;;;;;5075715;28;20454;-75
2022/06/18 11:05:55;;;;;;;12.50;3.00;;;32.90;98.00;;;;;;5086813;28;20442;-75
2022/06/18 11:08:26;;;;;;;8.40;3.00;;;33.00;97.90;;;;;;5069330;28;20497;-74
2022/06/18 11:10:56;;;;;;;8.57;3.13;;;33.20;97.90;;;;;;5070457;28;20459;-74
2022/06/18 11:13:27;;;;;;;7.90;3.23;;;33.30;97.20;;;;;;5069001;28;20451;-75
2022/06/18 11:16:15;;;;;;;7.50;3.50;;;33.40;96.60;;;;;;5070400;28;20489;-75
2022/06/18 11:18:51;;;;;;;4.20;2.80;;;33.40;96.10;;;;;;5082994;28;20508;-76
2022/06/18 11:21:25;;;;;;;6.97;3.53;;;33.30;95.70;;;;;;5070003;28;20983;-75
2022/06/18 11:23:56;;;;;;;8.13;4.40;;;33.10;95.60;;;;;;5068927;28;20455;-75
2022/06/18 11:26:24;;;;;;;7.93;3.37;;;33.00;95.40;;;;;;5080523;28;20483;-75
2022/06/18 11:28:54;;;;;;;13.03;3.90;;;32.90;95.90;;;;;;5080927;28;20455;-76
2022/06/18 11:31:29;;;;;;;6.87;3.03;;;33.00;95.90;;;;;;5073838;28;20474;-74
2022/06/18 11:34:00;;;;;;;4.07;3.33;;;32.90;96.00;;;;;;5073425;28;20459;-75
2022/06/18 11:36:46;;;;;;;5.47;2.60;;;32.90;95.70;;;;;;5087042;28;21007;-75
2022/06/18 11:39:32;;;;;;;4.47;2.73;;;32.90;96.50;;;;;;5078642;28;20455;-75
2022/06/18 11:42:05;;;;;;;6.67;3.13;;;33.00;96.10;;;;;;5071344;28;20467;-75
2022/06/18 11:44:37;;;;;;;7.90;3.07;;;33.20;95.10;;;;;;5078878;28;20451;-75
2022/06/18 11:47:13;;;;;;;7.07;2.87;;;33.10;95.60;;;;;;5086828;28;20561;-76
2022/06/18 11:49:46;;;;;;;7.33;3.20;;;33.30;96.10;;;;;;5090079;28;20953;-75
2022/06/18 11:52:21;;;;;;;7.87;3.20;;;33.40;96.10;;;;;;5078788;28;20954;-76
2022/06/18 11:55:00;;;;;;;10.73;3.70;;;33.50;95.00;;;;;;5077263;28;20508;-74
2022/06/18 11:57:31;;;;;;;13.77;3.80;;;33.60;95.10;;;;;;5091145;28;20472;-75
2022/06/18 12:00:06;;;;;;;4.63;3.03;;;33.70;94.70;;;;;;5091775;28;20467;-76
2022/06/18 12:02:50;;;;;;;6.83;2.93;;;33.70;94.40;;;;;;5086187;28;20450;-75
2022/06/18 12:05:23;;;;;;;3.33;3.00;;;33.70;94.70;;;;;;5076920;28;20451;-75
2022/06/18 12:07:54;;;;;;;6.17;3.17;;;33.70;94.10;;;;;;5075888;28;20491;-75
2022/06/18 12:10:33;;;;;;;12.00;4.00;;;33.40;94.00;;;;;;5074464;28;20994;-74
2022/06/18 12:13:09;;;;;;;11.70;3.50;;;33.30;94.20;;;;;;5091004;28;20447;-75
2022/06/18 12:15:42;;;;;;;10.80;3.30;;;33.20;94.50;;;;;;5091377;28;20450;-76
2022/06/18 12:18:15;;;;;;;10.43;3.53;;;33.30;94.80;;;;;;5078282;28;20507;-75
2022/06/18 12:21:03;;;;;;;16.17;3.93;;;33.70;94.40;;;;;;5086380;28;20525;-75
2022/06/18 12:23:40;;;;;;;11.30;3.53;;;34.10;93.30;;;;;;5075363;28;20501;-76
2022/06/18 12:26:12;;;;;;;8.40;3.17;;;34.40;92.40;;;;;;5074794;28;20451;-74
2022/06/18 12:28:48;;;;;;;10.67;3.63;;;34.70;92.20;;;;;;5088333;28;20486;-76
2022/06/18 12:31:20;;;;;;;12.07;3.23;;;34.80;92.30;;;;;;5092863;28;20875;-75
2022/06/18 12:33:56;;;;;;;11.90;3.60;;;34.70;91.70;;;;;;5082570;28;20447;-75
2022/06/18 12:36:29;;;;;;;5.83;3.50;;;34.60;92.50;;;;;;5089767;28;21096;-75
2022/06/18 12:39:04;;;;;;;9.13;3.17;;;34.80;93.20;;;;;;5086091;28;20459;-75
2022/06/18 12:41:42;;;;;;;6.93;3.60;;;35.20;92.00;;;;;;5076383;28;20535;-74
2022/06/18 12:44:23;;;;;;;11.87;4.60;;;35.40;90.40;;;;;;5084771;28;20545;-75
2022/06/18 12:46:59;;;;;;;17.80;3.93;;;35.00;90.20;;;;;;5085722;28;20531;-75
2022/06/18 12:49:34;;;;;;;11.80;4.30;;;34.80;90.60;;;;;;5079001;28;20451;-75
2022/06/18 12:52:08;;;;;;;14.20;3.57;;;34.90;90.70;;;;;;5092282;28;20458;-74
2022/06/18 12:54:52;;;;;;;7.73;3.60;;;35.00;90.50;;;;;;5082759;28;20447;-73
2022/06/18 12:57:26;;;;;;;15.63;4.43;;;35.10;90.70;;;;;;5073884;28;20504;-74
2022/06/18 13:00:03;;;;;;;7.17;4.03;;;35.20;90.10;;;;;;5076383;28;20545;-73
2022/06/18 13:02:49;;;;;;;13.20;3.80;;;35.30;88.60;;;;;;5075265;28;20451;-73
2022/06/18 13:05:29;;;;;;;13.10;4.10;;;35.30;88.30;;;;;;4921969;28;63856;-75
2022/06/18 13:08:02;;;;;;;16.67;3.70;;;35.30;88.30;;;;;;5054627;28;20894;-75
2022/06/18 13:10:36;;;;;;;10.30;4.20;;;35.40;86.60;;;;;;5060148;28;20990;-77
2022/06/18 13:13:17;;;;;;;10.37;4.03;;;35.30;86.50;;;;;;5066974;28;20467;-75